createdAt,value
2019-06-01T00:00:46.725Z,1019.87
2019-06-01T00:01:46.954Z,1019.89
2019-06-01T00:02:52.554Z,1019.87
2019-06-01T00:03:46.809Z,1019.90
2019-06-01T00:04:47.183Z,1019.87
2019-06-01T00:05:46.942Z,1019.91
2019-06-01T00:06:47.046Z,1019.91
2019-06-01T00:07:47.080Z,1019.91
2019-06-01T00:08:47.242Z,1019.89
2019-06-01T00:09:47.293Z,1019.86
2019-06-01T00:10:47.731Z,1019.88
2019-06-01T00:11:47.516Z,1019.82
2019-06-01T00:12:47.671Z,1019.88
2019-06-01T00:13:47.672Z,1019.88
2019-06-01T00:14:48.127Z,1019.85
2019-06-01T00:15:48.260Z,1019.87
2019-06-01T00:16:48.031Z,1019.88
2019-06-01T00:17:47.976Z,1019.89
2019-06-01T00:18:48.326Z,1019.90
2019-06-01T00:19:48.237Z,1019.90
2019-06-01T00:20:48.424Z,1019.94
2019-06-01T00:21:47.435Z,1019.93
2019-06-01T00:22:47.548Z,1019.95
2019-06-01T00:23:48.573Z,1019.99
2019-06-01T00:24:48.039Z,1019.99
2019-06-01T00:25:48.597Z,1019.96
2019-06-01T00:26:47.947Z,1019.96
2019-06-01T00:27:48.724Z,1019.99
2019-06-01T00:28:47.916Z,1019.96
2019-06-01T00:29:49.267Z,1019.98
2019-06-01T00:30:47.926Z,1019.97
2019-06-01T00:31:47.932Z,1019.96
2019-06-01T00:32:47.599Z,1019.96
2019-06-01T00:33:47.714Z,1019.97
2019-06-01T00:34:47.755Z,1020.00
2019-06-01T00:35:47.678Z,1019.95
2019-06-01T00:36:47.865Z,1020.00
2019-06-01T00:37:47.731Z,1019.98
2019-06-01T00:38:47.921Z,1020.00
2019-06-01T00:39:47.890Z,1020.03
2019-06-01T00:40:48.014Z,1020.02
2019-06-01T00:41:48.102Z,1020.09
2019-06-01T00:42:48.309Z,1020.09
2019-06-01T00:43:48.747Z,1020.08
2019-06-01T00:44:48.487Z,1020.10
2019-06-01T00:45:48.568Z,1020.10
2019-06-01T00:46:48.740Z,1020.07
2019-06-01T00:47:48.912Z,1020.05
2019-06-01T00:48:48.034Z,1020.05
2019-06-01T00:49:48.823Z,1020.05
2019-06-01T00:50:49.131Z,1020.11
2019-06-01T00:51:49.095Z,1020.07
2019-06-01T00:52:49.263Z,1020.10
2019-06-01T00:53:49.422Z,1020.09
2019-06-01T00:54:49.388Z,1020.15
2019-06-01T00:55:49.388Z,1020.15
2019-06-01T00:56:49.587Z,1020.12
2019-06-01T00:57:49.711Z,1020.14
2019-06-01T00:58:48.312Z,1020.17
2019-06-01T00:59:48.327Z,1020.12
2019-06-01T01:00:49.434Z,1020.14
2019-06-01T01:01:48.382Z,1020.12
2019-06-01T01:02:48.408Z,1020.11
2019-06-01T01:03:48.439Z,1020.14
2019-06-01T01:04:48.462Z,1020.14
2019-06-01T01:05:48.749Z,1020.14
2019-06-01T01:06:49.240Z,1020.12
2019-06-01T01:07:48.886Z,1020.11
2019-06-01T01:08:49.034Z,1020.18
2019-06-01T01:09:48.819Z,1020.20
2019-06-01T01:10:49.094Z,1020.22
2019-06-01T01:11:49.149Z,1020.23
2019-06-01T01:12:49.083Z,1020.25
2019-06-01T01:13:49.259Z,1020.29
2019-06-01T01:14:49.214Z,1020.29
2019-06-01T01:15:49.323Z,1020.26
2019-06-01T01:16:49.465Z,1020.23
2019-06-01T01:17:49.807Z,1020.24
2019-06-01T01:18:49.720Z,1020.21
2019-06-01T01:19:49.697Z,1020.20
2019-06-01T01:20:50.048Z,1020.19
2019-06-01T01:21:49.927Z,1020.19
2019-06-01T01:22:50.162Z,1020.18
2019-06-01T01:23:50.245Z,1020.21
2019-06-01T01:24:50.410Z,1020.19
2019-06-01T01:25:49.030Z,1020.21
2019-06-01T01:26:49.065Z,1020.22
2019-06-01T01:27:49.342Z,1020.20
2019-06-01T01:28:49.123Z,1020.14
2019-06-01T01:29:49.147Z,1020.13
2019-06-01T01:31:02.913Z,1020.12
2019-06-01T01:31:49.238Z,1020.11
2019-06-01T01:32:49.561Z,1020.10
2019-06-01T01:33:49.405Z,1020.08
2019-06-01T01:34:49.525Z,1020.16
2019-06-01T01:35:49.667Z,1020.11
2019-06-01T01:36:49.727Z,1020.10
2019-06-01T01:37:50.021Z,1020.11
2019-06-01T01:38:50.469Z,1020.10
2019-06-01T01:39:50.116Z,1020.11
2019-06-01T01:40:50.076Z,1020.09
2019-06-01T01:41:50.027Z,1020.08
2019-06-01T01:42:50.566Z,1020.11
2019-06-01T01:43:50.371Z,1020.14
2019-06-01T01:44:50.521Z,1020.13
2019-06-01T01:45:50.623Z,1020.15
2019-06-01T01:46:50.702Z,1020.17
2019-06-01T01:47:50.818Z,1020.18
2019-06-01T01:48:49.918Z,1020.22
2019-06-01T01:49:50.002Z,1020.20
2019-06-01T01:50:50.217Z,1020.17
2019-06-01T01:51:50.411Z,1020.23
2019-06-01T01:52:50.641Z,1020.17
2019-06-01T01:53:50.581Z,1020.18
2019-06-01T01:54:50.628Z,1020.18
2019-06-01T01:55:50.923Z,1020.17
2019-06-01T01:56:49.989Z,1020.15
2019-06-01T01:57:51.119Z,1020.16
2019-06-01T01:58:50.302Z,1020.12
2019-06-01T01:59:51.205Z,1020.14
2019-06-01T02:00:49.990Z,1020.15
2019-06-01T02:01:50.404Z,1020.16
2019-06-01T02:02:50.040Z,1020.21
2019-06-01T02:03:51.469Z,1020.23
2019-06-01T02:04:50.097Z,1020.27
2019-06-01T02:05:50.739Z,1020.31
2019-06-01T02:06:50.150Z,1020.31
2019-06-01T02:07:50.966Z,1020.36
2019-06-01T02:08:51.010Z,1020.35
2019-06-01T02:09:51.070Z,1020.33
2019-06-01T02:10:51.215Z,1020.37
2019-06-01T02:11:51.396Z,1020.33
2019-06-01T02:12:51.336Z,1020.36
2019-06-01T02:13:51.525Z,1020.38
2019-06-01T02:14:51.606Z,1020.37
2019-06-01T02:15:52.070Z,1020.39
2019-06-01T02:16:51.813Z,1020.43
2019-06-01T02:17:51.790Z,1020.40
2019-06-01T02:18:50.518Z,1020.44
2019-06-01T02:19:50.508Z,1020.44
2019-06-01T02:20:50.540Z,1020.46
2019-06-01T02:21:50.568Z,1020.41
2019-06-01T02:22:50.615Z,1020.41
2019-06-01T02:23:50.620Z,1020.38
2019-06-01T02:24:50.696Z,1020.42
2019-06-01T02:25:50.672Z,1020.42
2019-06-01T02:26:50.700Z,1020.41
2019-06-01T02:27:50.737Z,1020.38
2019-06-01T02:28:50.758Z,1020.36
2019-06-01T02:29:50.782Z,1020.38
2019-06-01T02:30:50.810Z,1020.36
2019-06-01T02:31:50.847Z,1020.37
2019-06-01T02:32:50.866Z,1020.39
2019-06-01T02:33:50.913Z,1020.39
2019-06-01T02:34:50.920Z,1020.43
2019-06-01T02:35:50.956Z,1020.40
2019-06-01T02:36:50.981Z,1020.42
2019-06-01T02:37:51.005Z,1020.43
2019-06-01T02:38:51.042Z,1020.42
2019-06-01T02:39:51.060Z,1020.44
2019-06-01T02:40:51.088Z,1020.42
2019-06-01T02:41:51.121Z,1020.46
2019-06-01T02:42:51.145Z,1020.42
2019-06-01T02:43:51.175Z,1020.47
2019-06-01T02:44:51.202Z,1020.47
2019-06-01T02:45:51.229Z,1020.46
2019-06-01T02:46:51.319Z,1020.54
2019-06-01T02:47:51.289Z,1020.50
2019-06-01T02:48:51.314Z,1020.49
2019-06-01T02:49:51.355Z,1020.52
2019-06-01T02:50:51.372Z,1020.55
2019-06-01T02:51:51.398Z,1020.53
2019-06-01T02:52:51.430Z,1020.52
2019-06-01T02:53:51.455Z,1020.50
2019-06-01T02:54:51.490Z,1020.52
2019-06-01T02:55:51.513Z,1020.53
2019-06-01T02:56:51.574Z,1020.52
2019-06-01T02:57:51.575Z,1020.53
2019-06-01T02:58:51.601Z,1020.51
2019-06-01T02:59:51.626Z,1020.51
2019-06-01T03:00:51.656Z,1020.50
2019-06-01T03:01:57.162Z,1020.47
2019-06-01T03:02:51.710Z,1020.48
2019-06-01T03:03:51.741Z,1020.49
2019-06-01T03:04:51.775Z,1020.53
2019-06-01T03:05:51.799Z,1020.53
2019-06-01T03:06:51.832Z,1020.50
2019-06-01T03:07:51.856Z,1020.50
2019-06-01T03:08:51.887Z,1020.53
2019-06-01T03:09:51.917Z,1020.55
2019-06-01T03:10:51.943Z,1020.53
2019-06-01T03:11:51.973Z,1020.55
2019-06-01T03:12:52.005Z,1020.53
2019-06-01T03:13:52.032Z,1020.53
2019-06-01T03:14:52.063Z,1020.52
2019-06-01T03:15:52.089Z,1020.52
2019-06-01T03:16:52.124Z,1020.55
2019-06-01T03:17:52.150Z,1020.53
2019-06-01T03:18:52.177Z,1020.54
2019-06-01T03:19:52.208Z,1020.50
2019-06-01T03:20:52.239Z,1020.55
2019-06-01T03:21:52.269Z,1020.52
2019-06-01T03:22:52.297Z,1020.53
2019-06-01T03:23:52.330Z,1020.49
2019-06-01T03:24:52.354Z,1020.51
2019-06-01T03:25:52.381Z,1020.53
2019-06-01T03:26:52.414Z,1020.56
2019-06-01T03:27:52.442Z,1020.57
2019-06-01T03:28:52.475Z,1020.56
2019-06-01T03:29:52.501Z,1020.57
2019-06-01T03:30:52.534Z,1020.55
2019-06-01T03:31:52.563Z,1020.57
2019-06-01T03:32:52.600Z,1020.52
2019-06-01T03:33:52.634Z,1020.54
2019-06-01T03:34:52.649Z,1020.54
2019-06-01T03:35:52.680Z,1020.56
2019-06-01T03:36:56.016Z,1020.54
2019-06-01T03:37:52.739Z,1020.57
2019-06-01T03:38:52.772Z,1020.58
2019-06-01T03:39:52.800Z,1020.55
2019-06-01T03:40:52.833Z,1020.58
2019-06-01T03:41:52.865Z,1020.52
2019-06-01T03:42:52.890Z,1020.55
2019-06-01T03:43:52.918Z,1020.54
2019-06-01T03:44:52.950Z,1020.50
2019-06-01T03:45:52.978Z,1020.51
2019-06-01T03:46:53.015Z,1020.48
2019-06-01T03:47:53.042Z,1020.50
2019-06-01T03:48:53.086Z,1020.48
2019-06-01T03:49:53.116Z,1020.50
2019-06-01T03:50:53.135Z,1020.50
2019-06-01T03:51:53.165Z,1020.52
2019-06-01T03:52:53.197Z,1020.54
2019-06-01T03:53:53.232Z,1020.51
2019-06-01T03:54:53.255Z,1020.52
2019-06-01T03:55:53.283Z,1020.54
2019-06-01T03:56:53.312Z,1020.51
2019-06-01T03:57:53.345Z,1020.58
2019-06-01T03:58:53.373Z,1020.49
2019-06-01T03:59:53.407Z,1020.56
2019-06-01T04:00:53.436Z,1020.50
2019-06-01T04:01:53.467Z,1020.58
2019-06-01T04:02:53.500Z,1020.57
2019-06-01T04:03:53.526Z,1020.56
2019-06-01T04:04:53.558Z,1020.57
2019-06-01T04:05:53.600Z,1020.59
2019-06-01T04:06:53.621Z,1020.54
2019-06-01T04:07:53.650Z,1020.53
2019-06-01T04:08:53.681Z,1020.51
2019-06-01T04:09:53.715Z,1020.52
2019-06-01T04:10:53.744Z,1020.51
2019-06-01T04:11:53.779Z,1020.54
2019-06-01T04:12:53.807Z,1020.52
2019-06-01T04:13:53.835Z,1020.53
2019-06-01T04:14:53.870Z,1020.51
2019-06-01T04:15:53.898Z,1020.53
2019-06-01T04:16:53.932Z,1020.52
2019-06-01T04:17:53.964Z,1020.55
2019-06-01T04:18:53.996Z,1020.57
2019-06-01T04:19:54.027Z,1020.56
2019-06-01T04:20:54.060Z,1020.53
2019-06-01T04:21:54.087Z,1020.55
2019-06-01T04:22:54.120Z,1020.54
2019-06-01T04:23:54.151Z,1020.52
2019-06-01T04:24:54.190Z,1020.56
2019-06-01T04:25:54.214Z,1020.55
2019-06-01T04:26:54.254Z,1020.59
2019-06-01T04:27:54.284Z,1020.63
2019-06-01T04:28:54.315Z,1020.63
2019-06-01T04:29:54.344Z,1020.64
2019-06-01T04:30:54.378Z,1020.67
2019-06-01T04:31:54.413Z,1020.61
2019-06-01T04:32:54.445Z,1020.61
2019-06-01T04:33:54.479Z,1020.59
2019-06-01T04:34:54.513Z,1020.64
2019-06-01T04:35:54.545Z,1020.70
2019-06-01T04:36:54.581Z,1020.60
2019-06-01T04:37:54.616Z,1020.65
2019-06-01T04:38:54.653Z,1020.66
2019-06-01T04:39:54.684Z,1020.66
2019-06-01T04:40:54.717Z,1020.63
2019-06-01T04:41:54.751Z,1020.62
2019-06-01T04:42:54.788Z,1020.65
2019-06-01T04:43:54.822Z,1020.70
2019-06-01T04:44:54.859Z,1020.75
2019-06-01T04:45:54.893Z,1020.71
2019-06-01T04:46:54.931Z,1020.64
2019-06-01T04:47:54.966Z,1020.65
2019-06-01T04:48:55.002Z,1020.68
2019-06-01T04:49:55.039Z,1020.67
2019-06-01T04:50:55.075Z,1020.74
2019-06-01T04:51:55.111Z,1020.75
2019-06-01T04:52:55.148Z,1020.78
2019-06-01T04:53:55.183Z,1020.79
2019-06-01T04:54:55.222Z,1020.79
2019-06-01T04:55:55.260Z,1020.81
2019-06-01T04:56:55.295Z,1020.83
2019-06-01T04:57:55.334Z,1020.77
2019-06-01T04:58:55.369Z,1020.77
2019-06-01T04:59:55.407Z,1020.68
2019-06-01T05:00:55.449Z,1020.69
2019-06-01T05:01:55.484Z,1020.70
2019-06-01T05:03:04.846Z,1020.70
2019-06-01T05:03:55.562Z,1020.71
2019-06-01T05:04:55.603Z,1020.71
2019-06-01T05:05:55.636Z,1020.77
2019-06-01T05:06:55.682Z,1020.69
2019-06-01T05:07:55.717Z,1020.72
2019-06-01T05:08:55.754Z,1020.72
2019-06-01T05:09:55.792Z,1020.73
2019-06-01T05:10:55.837Z,1020.72
2019-06-01T05:11:55.876Z,1020.74
2019-06-01T05:12:55.916Z,1020.74
2019-06-01T05:13:55.951Z,1020.77
2019-06-01T05:14:55.993Z,1020.73
2019-06-01T05:15:56.033Z,1020.73
2019-06-01T05:16:56.073Z,1020.72
2019-06-01T05:17:56.112Z,1020.73
2019-06-01T05:18:56.154Z,1020.75
2019-06-01T05:19:56.200Z,1020.73
2019-06-01T05:20:56.235Z,1020.76
2019-06-01T05:21:56.276Z,1020.77
2019-06-01T05:22:56.320Z,1020.75
2019-06-01T05:23:56.359Z,1020.77
2019-06-01T05:24:56.405Z,1020.78
2019-06-01T05:25:56.442Z,1020.80
2019-06-01T05:26:56.482Z,1020.76
2019-06-01T05:27:56.528Z,1020.74
2019-06-01T05:28:56.568Z,1020.78
2019-06-01T05:29:56.613Z,1020.78
2019-06-01T05:30:56.652Z,1020.80
2019-06-01T05:31:56.693Z,1020.80
2019-06-01T05:32:56.739Z,1020.79
2019-06-01T05:33:56.779Z,1020.78
2019-06-01T05:34:56.824Z,1020.76
2019-06-01T05:35:56.863Z,1020.76
2019-06-01T05:36:56.908Z,1020.74
2019-06-01T05:37:56.951Z,1020.74
2019-06-01T05:38:56.994Z,1020.73
2019-06-01T05:39:57.040Z,1020.75
2019-06-01T05:40:57.080Z,1020.76
2019-06-01T05:41:57.122Z,1020.74
2019-06-01T05:42:57.167Z,1020.79
2019-06-01T05:43:57.213Z,1020.75
2019-06-01T05:44:57.255Z,1020.71
2019-06-01T05:45:57.298Z,1020.69
2019-06-01T05:46:57.343Z,1020.68
2019-06-01T05:47:57.391Z,1020.65
2019-06-01T05:48:57.430Z,1020.67
2019-06-01T05:49:57.474Z,1020.65
2019-06-01T05:50:57.519Z,1020.66
2019-06-01T05:51:57.561Z,1020.61
2019-06-01T05:52:57.606Z,1020.70
2019-06-01T05:53:57.651Z,1020.67
2019-06-01T05:54:57.692Z,1020.70
2019-06-01T05:55:57.735Z,1020.73
2019-06-01T05:56:57.776Z,1020.81
2019-06-01T05:57:57.820Z,1020.83
2019-06-01T05:58:57.861Z,1020.99
2019-06-01T05:59:57.904Z,1021.02
2019-06-01T06:00:57.973Z,1020.94
2019-06-01T06:01:57.991Z,1020.95
2019-06-01T06:02:58.031Z,1020.96
2019-06-01T06:03:58.075Z,1021.02
2019-06-01T06:04:58.120Z,1020.94
2019-06-01T06:05:58.159Z,1020.92
2019-06-01T06:06:58.205Z,1020.89
2019-06-01T06:07:58.247Z,1020.86
2019-06-01T06:08:58.287Z,1020.82
2019-06-01T06:09:58.329Z,1020.85
2019-06-01T06:10:58.374Z,1020.86
2019-06-01T06:11:58.415Z,1020.88
2019-06-01T06:12:58.460Z,1020.86
2019-06-01T06:13:58.524Z,1020.91
2019-06-01T06:14:58.552Z,1020.83
2019-06-01T06:15:58.602Z,1020.86
2019-06-01T06:16:58.635Z,1020.82
2019-06-01T06:17:58.676Z,1020.81
2019-06-01T06:18:58.727Z,1020.79
2019-06-01T06:19:58.767Z,1020.78
2019-06-01T06:20:58.809Z,1020.79
2019-06-01T06:21:58.851Z,1020.83
2019-06-01T06:22:58.902Z,1020.95
2019-06-01T06:23:58.942Z,1020.94
2019-06-01T06:24:58.988Z,1020.98
2019-06-01T06:25:59.031Z,1020.92
2019-06-01T06:26:59.076Z,1020.89
2019-06-01T06:27:59.118Z,1020.86
2019-06-01T06:28:59.160Z,1020.87
2019-06-01T06:29:59.203Z,1020.86
2019-06-01T06:30:59.251Z,1020.90
2019-06-01T06:31:59.293Z,1020.85
2019-06-01T06:32:59.336Z,1020.81
2019-06-01T06:33:59.382Z,1020.84
2019-06-01T06:34:59.435Z,1020.80
2019-06-01T06:35:59.476Z,1020.72
2019-06-01T06:36:59.515Z,1020.78
2019-06-01T06:37:59.560Z,1020.81
2019-06-01T06:38:59.602Z,1020.80
2019-06-01T06:39:59.645Z,1020.85
2019-06-01T06:40:59.691Z,1020.81
2019-06-01T06:41:59.737Z,1020.80
2019-06-01T06:42:59.780Z,1020.83
2019-06-01T06:43:59.821Z,1020.87
2019-06-01T06:45:03.332Z,1020.85
2019-06-01T06:45:59.911Z,1020.89
2019-06-01T06:46:59.964Z,1020.90
2019-06-01T06:47:59.996Z,1020.90
2019-06-01T06:49:00.039Z,1020.92
2019-06-01T06:50:00.087Z,1020.92
2019-06-01T06:51:00.136Z,1020.91
2019-06-01T06:52:00.170Z,1020.83
2019-06-01T06:53:00.220Z,1020.89
2019-06-01T06:54:00.254Z,1020.77
2019-06-01T06:55:00.298Z,1020.82
2019-06-01T06:56:00.351Z,1020.87
2019-06-01T06:57:00.405Z,1020.84
2019-06-01T06:58:00.427Z,1020.90
2019-06-01T06:59:00.472Z,1020.84
2019-06-01T07:00:00.514Z,1020.80
2019-06-01T07:01:00.557Z,1020.82
2019-06-01T07:02:00.609Z,1020.84
2019-06-01T07:03:00.644Z,1020.82
2019-06-01T07:04:12.357Z,1020.88
2019-06-01T07:05:00.732Z,1020.84
2019-06-01T07:06:00.775Z,1020.79
2019-06-01T07:07:00.831Z,1020.81
2019-06-01T07:08:00.876Z,1020.83
2019-06-01T07:09:00.923Z,1020.86
2019-06-01T07:10:00.969Z,1020.84
2019-06-01T07:11:00.997Z,1020.80
2019-06-01T07:12:01.040Z,1020.80
2019-06-01T07:13:01.132Z,1020.77
2019-06-01T07:14:01.141Z,1020.78
2019-06-01T07:15:01.176Z,1020.74
2019-06-01T07:16:03.889Z,1020.78
2019-06-01T07:17:01.262Z,1020.79
2019-06-01T07:18:01.313Z,1020.79
2019-06-01T07:19:01.359Z,1020.80
2019-06-01T07:20:01.440Z,1020.83
2019-06-01T07:21:01.444Z,1020.92
2019-06-01T07:22:01.484Z,1020.85
2019-06-01T07:23:01.546Z,1020.89
2019-06-01T07:24:01.594Z,1020.94
2019-06-01T07:25:01.660Z,1020.90
2019-06-01T07:26:01.661Z,1020.85
2019-06-01T07:27:01.708Z,1020.82
2019-06-01T07:28:01.763Z,1020.88
2019-06-01T07:29:01.797Z,1020.95
2019-06-01T07:30:01.853Z,1020.92
2019-06-01T07:31:01.883Z,1020.90
2019-06-01T07:32:01.927Z,1020.96
2019-06-01T07:33:01.985Z,1020.88
2019-06-01T07:34:02.025Z,1020.93
2019-06-01T07:35:02.067Z,1020.94
2019-06-01T07:36:02.107Z,1020.91
2019-06-01T07:37:02.155Z,1020.92
2019-06-01T07:38:02.196Z,1020.91
2019-06-01T07:39:02.242Z,1020.88
2019-06-01T07:40:02.292Z,1020.89
2019-06-01T07:41:02.331Z,1020.87
2019-06-01T07:42:02.380Z,1020.84
2019-06-01T07:43:02.422Z,1020.80
2019-06-01T07:44:02.468Z,1020.90
2019-06-01T07:45:02.544Z,1020.89
2019-06-01T07:46:02.554Z,1020.84
2019-06-01T07:47:02.599Z,1020.81
2019-06-01T07:48:02.650Z,1020.84
2019-06-01T07:49:02.691Z,1020.88
2019-06-01T07:50:02.738Z,1020.90
2019-06-01T07:51:02.779Z,1020.90
2019-06-01T07:52:12.680Z,1020.88
2019-06-01T07:53:02.873Z,1020.88
2019-06-01T07:54:02.914Z,1020.87
2019-06-01T07:55:02.960Z,1020.86
2019-06-01T07:56:03.005Z,1020.83
2019-06-01T07:57:03.049Z,1020.86
2019-06-01T07:58:03.097Z,1020.90
2019-06-01T07:59:03.142Z,1020.88
2019-06-01T08:00:03.184Z,1020.88
2019-06-01T08:01:03.233Z,1020.91
2019-06-01T08:02:03.281Z,1020.86
2019-06-01T08:03:03.322Z,1020.87
2019-06-01T08:04:03.366Z,1020.89
2019-06-01T08:05:03.411Z,1020.85
2019-06-01T08:06:03.456Z,1020.81
2019-06-01T08:07:03.522Z,1020.85
2019-06-01T08:08:03.546Z,1020.90
2019-06-01T08:09:03.595Z,1020.97
2019-06-01T08:10:03.639Z,1020.96
2019-06-01T08:11:03.684Z,1020.92
2019-06-01T08:12:03.732Z,1020.87
2019-06-01T08:13:03.774Z,1020.85
2019-06-01T08:14:03.824Z,1020.83
2019-06-01T08:15:03.868Z,1020.88
2019-06-01T08:16:03.913Z,1020.82
2019-06-01T08:17:03.962Z,1020.86
2019-06-01T08:18:04.006Z,1020.82
2019-06-01T08:19:04.050Z,1020.86
2019-06-01T08:20:04.097Z,1020.84
2019-06-01T08:21:04.142Z,1020.86
2019-06-01T08:22:04.197Z,1020.90
2019-06-01T08:23:04.230Z,1020.91
2019-06-01T08:24:04.312Z,1020.88
2019-06-01T08:25:04.322Z,1020.83
2019-06-01T08:26:04.366Z,1020.77
2019-06-01T08:27:04.408Z,1020.77
2019-06-01T08:28:04.460Z,1020.79
2019-06-01T08:29:04.498Z,1020.79
2019-06-01T08:30:04.593Z,1020.73
2019-06-01T08:31:04.587Z,1020.74
2019-06-01T08:32:04.631Z,1020.81
2019-06-01T08:33:04.679Z,1020.83
2019-06-01T08:34:04.728Z,1020.85
2019-06-01T08:35:09.055Z,1020.77
2019-06-01T08:36:04.806Z,1020.72
2019-06-01T08:37:04.853Z,1020.78
2019-06-01T08:38:04.909Z,1020.75
2019-06-01T08:39:04.944Z,1020.72
2019-06-01T08:40:04.984Z,1020.70
2019-06-01T08:41:05.032Z,1020.75
2019-06-01T08:42:05.074Z,1020.71
2019-06-01T08:43:05.120Z,1020.75
2019-06-01T08:44:05.165Z,1020.76
2019-06-01T08:45:05.208Z,1020.79
2019-06-01T08:46:05.306Z,1020.74
2019-06-01T08:47:05.300Z,1020.65
2019-06-01T08:48:05.352Z,1020.71
2019-06-01T08:49:05.389Z,1020.69
2019-06-01T08:50:05.441Z,1020.69
2019-06-01T08:51:05.481Z,1020.71
2019-06-01T08:52:05.527Z,1020.72
2019-06-01T08:53:05.571Z,1020.67
2019-06-01T08:54:05.618Z,1020.63
2019-06-01T08:55:05.661Z,1020.56
2019-06-01T08:56:05.710Z,1020.60
2019-06-01T08:57:05.753Z,1020.57
2019-06-01T08:58:05.797Z,1020.55
2019-06-01T08:59:05.844Z,1020.55
2019-06-01T09:00:05.889Z,1020.57
2019-06-01T09:01:05.938Z,1020.55
2019-06-01T09:02:05.982Z,1020.47
2019-06-01T09:03:06.029Z,1020.52
2019-06-01T09:04:06.077Z,1020.51
2019-06-01T09:05:06.118Z,1020.51
2019-06-01T09:06:06.164Z,1020.46
2019-06-01T09:07:06.212Z,1020.45
2019-06-01T09:08:06.256Z,1020.44
2019-06-01T09:09:06.304Z,1020.44
2019-06-01T09:10:06.350Z,1020.42
2019-06-01T09:11:06.401Z,1020.48
2019-06-01T09:12:06.440Z,1020.58
2019-06-01T09:13:06.486Z,1020.50
2019-06-01T09:14:06.534Z,1020.44
2019-06-01T09:15:06.579Z,1020.42
2019-06-01T09:16:06.649Z,1020.39
2019-06-01T09:17:06.676Z,1020.50
2019-06-01T09:18:06.721Z,1020.40
2019-06-01T09:19:10.943Z,1020.51
2019-06-01T09:20:06.817Z,1020.41
2019-06-01T09:21:06.865Z,1020.47
2019-06-01T09:22:06.913Z,1020.56
2019-06-01T09:23:06.961Z,1020.47
2019-06-01T09:24:07.008Z,1020.41
2019-06-01T09:25:07.057Z,1020.42
2019-06-01T09:26:07.105Z,1020.34
2019-06-01T09:27:07.154Z,1020.29
2019-06-01T09:28:07.232Z,1020.29
2019-06-01T09:29:07.250Z,1020.31
2019-06-01T09:30:07.298Z,1020.29
2019-06-01T09:31:07.343Z,1020.33
2019-06-01T09:32:10.851Z,1020.37
2019-06-01T09:33:07.441Z,1020.35
2019-06-01T09:34:07.489Z,1020.31
2019-06-01T09:35:07.543Z,1020.30
2019-06-01T09:36:07.589Z,1020.29
2019-06-01T09:37:07.635Z,1020.29
2019-06-01T09:38:07.684Z,1020.27
2019-06-01T09:39:07.730Z,1020.32
2019-06-01T09:40:07.788Z,1020.31
2019-06-01T09:41:07.855Z,1020.27
2019-06-01T09:42:07.877Z,1020.19
2019-06-01T09:43:07.935Z,1020.22
2019-06-01T09:44:07.970Z,1020.27
2019-06-01T09:45:08.023Z,1020.27
2019-06-01T09:46:08.067Z,1020.33
2019-06-01T09:47:08.123Z,1020.25
2019-06-01T09:48:08.167Z,1020.29
2019-06-01T09:49:08.213Z,1020.17
2019-06-01T09:50:08.260Z,1020.24
2019-06-01T09:51:08.307Z,1020.30
2019-06-01T09:52:12.173Z,1020.26
2019-06-01T09:53:08.402Z,1020.26
2019-06-01T09:54:08.451Z,1020.23
2019-06-01T09:55:08.507Z,1020.28
2019-06-01T09:56:08.548Z,1020.18
2019-06-01T09:57:08.594Z,1020.19
2019-06-01T09:58:08.642Z,1020.18
2019-06-01T09:59:08.690Z,1020.19
2019-06-01T10:00:08.740Z,1020.14
2019-06-01T10:01:08.786Z,1020.18
2019-06-01T10:02:08.834Z,1020.18
2019-06-01T10:03:08.880Z,1020.15
2019-06-01T10:04:08.929Z,1020.11
2019-06-01T10:05:08.976Z,1020.17
2019-06-01T10:06:09.023Z,1020.14
2019-06-01T10:07:09.085Z,1020.08
2019-06-01T10:08:09.120Z,1020.07
2019-06-01T10:09:09.172Z,1020.03
2019-06-01T10:10:09.212Z,1020.05
2019-06-01T10:11:09.261Z,1020.08
2019-06-01T10:12:09.307Z,1020.12
2019-06-01T10:13:09.355Z,1020.06
2019-06-01T10:14:09.403Z,1020.04
2019-06-01T10:15:09.451Z,1020.03
2019-06-01T10:16:09.495Z,1020.00
2019-06-01T10:17:09.545Z,1020.00
2019-06-01T10:18:09.591Z,1020.05
2019-06-01T10:19:09.640Z,1020.02
2019-06-01T10:20:09.689Z,1019.98
2019-06-01T10:21:09.731Z,1019.97
2019-06-01T10:22:09.781Z,1020.00
2019-06-01T10:23:09.822Z,1019.98
2019-06-01T10:24:09.870Z,1019.90
2019-06-01T10:25:09.918Z,1019.97
2019-06-01T10:26:09.962Z,1019.91
2019-06-01T10:27:10.009Z,1019.89
2019-06-01T10:28:10.060Z,1019.84
2019-06-01T10:29:10.106Z,1019.82
2019-06-01T10:30:10.146Z,1019.82
2019-06-01T10:31:10.194Z,1019.86
2019-06-01T10:32:10.260Z,1019.78
2019-06-01T10:33:10.355Z,1019.84
2019-06-01T10:34:10.332Z,1019.95
2019-06-01T10:35:10.380Z,1019.97
2019-06-01T10:36:20.821Z,1019.89
2019-06-01T10:37:10.484Z,1019.85
2019-06-01T10:38:10.514Z,1019.81
2019-06-01T10:39:10.568Z,1019.78
2019-06-01T10:40:10.606Z,1019.76
2019-06-01T10:41:10.654Z,1019.78
2019-06-01T10:42:10.700Z,1019.81
2019-06-01T10:43:10.753Z,1019.70
2019-06-01T10:44:10.789Z,1019.73
2019-06-01T10:45:10.838Z,1019.74
2019-06-01T10:46:10.882Z,1019.76
2019-06-01T10:47:10.930Z,1019.71
2019-06-01T10:48:10.975Z,1019.78
2019-06-01T10:49:11.024Z,1019.71
2019-06-01T10:50:11.066Z,1019.65
2019-06-01T10:51:11.117Z,1019.68
2019-06-01T10:52:11.166Z,1019.68
2019-06-01T10:53:11.206Z,1019.69
2019-06-01T10:54:11.253Z,1019.62
2019-06-01T10:55:11.319Z,1019.67
2019-06-01T10:56:11.347Z,1019.57
2019-06-01T10:57:11.392Z,1019.57
2019-06-01T10:58:11.439Z,1019.61
2019-06-01T10:59:11.485Z,1019.56
2019-06-01T11:00:11.536Z,1019.52
2019-06-01T11:01:11.586Z,1019.53
2019-06-01T11:02:11.626Z,1019.46
2019-06-01T11:03:11.673Z,1019.44
2019-06-01T11:04:11.725Z,1019.50
2019-06-01T11:05:11.770Z,1019.45
2019-06-01T11:06:11.811Z,1019.40
2019-06-01T11:07:11.859Z,1019.43
2019-06-01T11:08:11.906Z,1019.47
2019-06-01T11:09:11.954Z,1019.43
2019-06-01T11:10:11.997Z,1019.31
2019-06-01T11:11:12.043Z,1019.39
2019-06-01T11:12:12.087Z,1019.34
2019-06-01T11:13:12.135Z,1019.38
2019-06-01T11:14:12.178Z,1019.45
2019-06-01T11:15:12.226Z,1019.42
2019-06-01T11:16:12.270Z,1019.43
2019-06-01T11:17:12.321Z,1019.43
2019-06-01T11:18:12.362Z,1019.34
2019-06-01T11:19:12.406Z,1019.30
2019-06-01T11:20:12.454Z,1019.35
2019-06-01T11:21:12.499Z,1019.34
2019-06-01T11:22:12.539Z,1019.38
2019-06-01T11:23:12.588Z,1019.37
2019-06-01T11:24:12.642Z,1019.35
2019-06-01T11:25:12.675Z,1019.38
2019-06-01T11:26:12.823Z,1019.33
2019-06-01T11:27:12.764Z,1019.36
2019-06-01T11:28:12.810Z,1019.31
2019-06-01T11:29:12.860Z,1019.44
2019-06-01T11:30:12.901Z,1019.39
2019-06-01T11:31:12.943Z,1019.41
2019-06-01T11:32:12.991Z,1019.44
2019-06-01T11:33:13.035Z,1019.37
2019-06-01T11:34:13.080Z,1019.31
2019-06-01T11:35:13.125Z,1019.39
2019-06-01T11:36:13.168Z,1019.44
2019-06-01T11:37:15.576Z,1019.39
2019-06-01T11:38:13.257Z,1019.24
2019-06-01T11:39:13.301Z,1019.25
2019-06-01T11:40:13.348Z,1019.28
2019-06-01T11:41:13.391Z,1019.14
2019-06-01T11:42:13.435Z,1019.27
2019-06-01T11:43:13.479Z,1019.20
2019-06-01T11:44:13.522Z,1019.23
2019-06-01T11:45:13.564Z,1019.18
2019-06-01T11:46:13.609Z,1019.15
2019-06-01T11:47:13.653Z,1019.11
2019-06-01T11:48:13.700Z,1019.07
2019-06-01T11:49:13.748Z,1019.07
2019-06-01T11:50:13.785Z,1019.08
2019-06-01T11:51:13.859Z,1019.08
2019-06-01T11:52:13.873Z,1019.15
2019-06-01T11:53:13.931Z,1019.16
2019-06-01T11:54:13.966Z,1019.16
2019-06-01T11:55:14.006Z,1019.16
2019-06-01T11:56:14.051Z,1019.11
2019-06-01T11:57:14.095Z,1019.12
2019-06-01T11:58:14.160Z,1019.06
2019-06-01T11:59:14.181Z,1019.17
2019-06-01T12:00:14.234Z,1019.11
2019-06-01T12:01:14.269Z,1019.06
2019-06-01T12:02:14.316Z,1018.91
2019-06-01T12:03:14.365Z,1019.01
2019-06-01T12:04:14.404Z,1018.93
2019-06-01T12:05:14.445Z,1018.97
2019-06-01T12:06:14.490Z,1018.94